Time;durP1;ratioP1;P1;durP2;ratioP2;P2;SDS_P1;SDS_P2;PMS_P1;PMS_P2;Temp;Humidity;BMP_temperature;BMP_pressure;BME280_temperature;BME280_humidity;BME280_pressure;Samples;Min_cycle;Max_cycle;Signal;HPM_P1;HPM_P2
2021/06/20 00:00:06;;;;;;;21.52;7.28;;;;;;;20.22;63.32;98872.48;2045272;87;21011;-63
2021/06/20 00:03:08;;;;;;;20.92;6.80;;;;;;;20.18;64.68;98880.43;2017500;87;21498;-63
2021/06/20 00:06:08;;;;;;;20.50;6.87;;;;;;;20.14;63.80;98883.05;2045333;87;21051;-64
2021/06/20 00:09:10;;;;;;;19.20;7.45;;;;;;;20.10;63.88;98883.02;2045377;87;20979;-63
2021/06/20 00:12:11;;;;;;;18.98;7.15;;;;;;;20.07;64.23;98886.84;2045213;87;21079;-63
2021/06/20 00:15:11;;;;;;;22.62;8.73;;;;;;;20.01;64.29;98880.30;2045229;86;21520;-63
2021/06/20 00:18:12;;;;;;;28.32;10.32;;;;;;;20.00;64.17;98885.27;2045164;87;21034;-63
2021/06/20 00:21:12;;;;;;;31.50;11.80;;;;;;;19.93;64.19;98880.22;2078832;86;21490;-63
2021/06/20 00:24:13;;;;;;;24.07;9.18;;;;;;;19.86;64.18;98881.31;2045484;87;21045;-63
2021/06/20 00:27:13;;;;;;;23.32;8.55;;;;;;;19.82;64.63;98879.11;2078487;86;21067;-63
2021/06/20 00:30:14;;;;;;;26.45;11.08;;;;;;;19.79;64.48;98883.41;2057732;87;21017;-63
2021/06/20 00:33:14;;;;;;;23.15;8.73;;;;;;;19.72;64.50;98874.68;2057744;86;21060;-63
2021/06/20 00:36:15;;;;;;;20.90;7.92;;;;;;;19.67;64.57;98874.78;2045094;87;20987;-64
2021/06/20 00:39:15;;;;;;;19.85;7.92;;;;;;;19.62;65.02;98863.24;2044985;87;21534;-63
2021/06/20 00:42:16;;;;;;;20.27;7.87;;;;;;;19.59;65.46;98868.05;2058479;86;21511;-63
2021/06/20 00:45:16;;;;;;;20.68;7.60;;;;;;;19.53;65.27;98866.31;2081155;85;21009;-63
2021/06/20 00:48:17;;;;;;;18.48;6.90;;;;;;;19.48;65.48;98869.94;2068666;86;20976;-63
2021/06/20 00:51:18;;;;;;;18.10;6.67;;;;;;;19.45;65.78;98870.23;2081330;86;21052;-63
2021/06/20 00:54:18;;;;;;;19.45;7.12;;;;;;;19.40;65.78;98868.50;2068678;86;21055;-63
2021/06/20 00:57:18;;;;;;;19.55;7.40;;;;;;;19.37;65.76;98870.96;2081447;85;21005;-63
2021/06/20 01:00:19;;;;;;;21.65;7.75;;;;;;;19.33;65.71;98870.91;2068429;86;21534;-63
2021/06/20 01:03:19;;;;;;;18.85;8.10;;;;;;;19.26;65.91;98870.34;2081478;85;21065;-63
2021/06/20 01:06:20;;;;;;;19.85;7.20;;;;;;;19.09;66.08;98859.48;2068409;86;21467;-63
2021/06/20 01:09:20;;;;;;;20.08;7.35;;;;;;;19.09;66.08;98859.48;2081593;85;21516;-64
2021/06/20 01:12:21;;;;;;;20.25;7.10;;;;;;;19.01;66.08;98862.89;2068158;86;21554;-63
2021/06/20 01:15:21;;;;;;;21.60;7.05;;;;;;;18.93;66.70;98858.79;2081233;85;20998;-65
2021/06/20 01:18:21;;;;;;;18.82;7.33;;;;;;;18.87;66.90;98856.73;2068260;86;21004;-64
2021/06/20 01:21:22;;;;;;;20.30;7.85;;;;;;;18.87;67.15;98851.41;2081475;85;21046;-63
2021/06/20 01:24:23;;;;;;;23.12;7.35;;;;;;;18.82;66.82;98852.30;2068385;86;21040;-64
2021/06/20 01:27:24;;;;;;;20.60;7.37;;;;;;;18.79;67.11;98848.61;2081139;85;21041;-63
2021/06/20 01:30:24;;;;;;;21.05;7.12;;;;;;;18.74;67.42;98843.73;2068472;86;21618;-64
2021/06/20 01:33:25;;;;;;;20.48;6.97;;;;;;;18.70;67.22;98835.23;2081443;85;21064;-63
2021/06/20 01:36:25;;;;;;;18.95;7.20;;;;;;;18.68;67.22;98826.56;2068229;86;21047;-63
2021/06/20 01:39:26;;;;;;;20.30;7.47;;;;;;;18.59;67.39;98830.57;2081440;85;21049;-62
2021/06/20 01:42:26;;;;;;;21.05;7.67;;;;;;;18.51;67.65;98829.98;2066616;86;21067;-63
2021/06/20 01:45:27;;;;;;;19.80;7.92;;;;;;;18.48;67.74;98832.92;2075572;86;21084;-63
2021/06/20 01:48:27;;;;;;;22.45;8.23;;;;;;;18.43;67.95;98835.16;2065697;86;21020;-63
2021/06/20 01:51:28;;;;;;;18.57;7.40;;;;;;;18.39;68.08;98836.42;2075509;86;21043;-63
2021/06/20 01:54:29;;;;;;;19.25;7.30;;;;;;;18.31;68.91;98835.32;2065644;86;21510;-63
2021/06/20 01:57:30;;;;;;;20.02;7.05;;;;;;;18.27;68.40;98837.91;2075494;86;21020;-63
2021/06/20 02:00:30;;;;;;;18.70;6.90;;;;;;;18.24;68.52;98828.91;2065648;86;21035;-63
2021/06/20 02:03:31;;;;;;;21.30;7.62;;;;;;;18.18;68.63;98822.34;2075391;86;21036;-63
2021/06/20 02:06:31;;;;;;;20.17;7.45;;;;;;;18.16;69.06;98809.72;2065629;86;21023;-63
2021/06/20 02:09:32;;;;;;;19.75;8.10;;;;;;;18.14;69.96;98801.05;2075454;86;21538;-63
2021/06/20 02:12:32;;;;;;;20.60;7.60;;;;;;;18.13;69.49;98802.52;2065633;86;21551;-64
2021/06/20 02:15:33;;;;;;;18.73;7.12;;;;;;;18.09;69.81;98797.17;2075505;86;21503;-63
2021/06/20 02:18:33;;;;;;;21.48;7.50;;;;;;;18.10;70.54;98794.84;2065624;86;21008;-65
2021/06/20 02:21:33;;;;;;;19.55;7.37;;;;;;;18.14;70.61;98793.08;2075413;86;21008;-63
2021/06/20 02:24:34;;;;;;;20.48;7.72;;;;;;;18.18;70.31;98787.02;2065631;86;21040;-63
2021/06/20 02:27:34;;;;;;;19.48;7.83;;;;;;;18.20;70.31;98787.70;2075567;86;20996;-63
2021/06/20 02:30:35;;;;;;;20.08;7.83;;;;;;;18.20;70.39;98786.38;2065621;86;21067;-64
2021/06/20 02:33:35;;;;;;;22.65;7.17;;;;;;;18.21;71.32;98780.59;2075380;86;21008;-63
2021/06/20 02:36:36;;;;;;;20.77;7.83;;;;;;;18.23;70.87;98787.44;2065547;86;21031;-62
2021/06/20 02:39:36;;;;;;;20.92;7.80;;;;;;;18.24;71.31;98786.94;2075499;86;20961;-63
2021/06/20 02:42:37;;;;;;;21.48;8.15;;;;;;;18.27;71.60;98789.30;2068066;86;21032;-64
2021/06/20 02:45:37;;;;;;;20.40;7.95;;;;;;;18.27;71.53;98794.61;2096483;85;21372;-63
2021/06/20 02:48:38;;;;;;;21.97;7.62;;;;;;;18.30;71.20;98796.97;2096511;85;21043;-63
2021/06/20 02:51:42;;;;;;;18.27;7.17;;;;;;;18.30;71.57;98792.52;2096344;85;21522;-63
2021/06/20 02:54:49;;;;;;;19.32;7.50;;;;;;;18.34;71.58;98801.02;2076916;85;20992;-63
2021/06/20 02:57:44;;;;;;;20.52;7.15;;;;;;;18.41;71.54;98806.09;2076722;85;21512;-63
2021/06/20 03:00:44;;;;;;;19.92;7.50;;;;;;;18.51;71.32;98804.24;2096341;85;21016;-63
2021/06/20 03:03:45;;;;;;;18.57;7.78;;;;;;;18.57;71.15;98804.16;2096277;85;21052;-63
2021/06/20 03:06:45;;;;;;;20.55;8.60;;;;;;;18.64;71.51;98810.56;2096330;85;20985;-64
2021/06/20 03:09:46;;;;;;;19.70;7.92;;;;;;;18.70;71.18;98808.67;2096319;85;20984;-63
2021/06/20 03:12:46;;;;;;;19.70;7.80;;;;;;;18.78;71.08;98803.12;2096377;85;20996;-63
2021/06/20 03:15:47;;;;;;;21.50;7.50;;;;;;;18.81;70.82;98806.80;2096455;85;20989;-64
2021/06/20 03:18:47;;;;;;;20.88;7.65;;;;;;;18.90;70.93;98809.92;2096315;85;21007;-64
2021/06/20 03:21:48;;;;;;;19.82;7.62;;;;;;;19.06;70.59;98810.61;2096711;85;21031;-63
2021/06/20 03:24:49;;;;;;;24.50;8.33;;;;;;;19.16;70.37;98811.89;2096474;85;20981;-63
2021/06/20 03:27:49;;;;;;;19.80;7.40;;;;;;;19.27;70.34;98807.70;2096419;85;21012;-63
2021/06/20 03:30:50;;;;;;;20.52;7.30;;;;;;;19.36;69.90;98804.63;2096260;85;21515;-64
2021/06/20 03:33:50;;;;;;;19.55;7.15;;;;;;;19.64;69.37;98804.56;2096476;85;21514;-63
2021/06/20 03:36:52;;;;;;;19.80;7.20;;;;;;;19.64;69.37;98804.56;2096615;85;21567;-63
2021/06/20 03:39:52;;;;;;;20.77;7.57;;;;;;;19.78;68.95;98812.00;2096600;85;21056;-63
2021/06/20 03:42:53;;;;;;;19.00;6.85;;;;;;;19.96;68.62;98800.05;2095874;85;21049;-63
2021/06/20 03:45:53;;;;;;;20.95;7.17;;;;;;;20.12;68.10;98808.66;2095146;85;21026;-63
2021/06/20 03:48:54;;;;;;;18.90;7.15;;;;;;;20.21;67.85;98806.89;2095397;85;20986;-63
2021/06/20 03:51:54;;;;;;;21.35;7.47;;;;;;;20.34;67.61;98805.14;2095187;85;20978;-63
2021/06/20 03:54:55;;;;;;;20.57;6.65;;;;;;;20.45;67.25;98807.55;2095074;84;21001;-63
2021/06/20 03:57:56;;;;;;;17.85;6.55;;;;;;;20.60;67.12;98805.13;2095163;85;21018;-63
2021/06/20 04:00:58;;;;;;;19.77;6.50;;;;;;;20.80;66.86;98813.75;2094796;85;21598;-63
2021/06/20 04:03:59;;;;;;;16.87;6.15;;;;;;;21.04;65.85;98810.35;2095044;85;21064;-65
2021/06/20 04:07:01;;;;;;;15.90;6.15;;;;;;;21.21;65.85;98807.75;2095002;85;21081;-63
2021/06/20 04:10:03;;;;;;;17.25;5.70;;;;;;;21.46;65.55;98812.16;2095183;85;21005;-68
2021/06/20 04:13:05;;;;;;;16.50;5.65;;;;;;;21.74;64.97;98813.22;2094956;85;21105;-63
2021/06/20 04:16:06;;;;;;;15.38;5.40;;;;;;;21.99;64.15;98813.22;2095155;85;21005;-63
2021/06/20 04:19:07;;;;;;;15.25;5.12;;;;;;;22.19;63.32;98803.53;2095113;85;21045;-63
2021/06/20 04:22:09;;;;;;;17.42;5.50;;;;;;;22.41;63.23;98802.86;2095200;85;21020;-63
2021/06/20 04:25:13;;;;;;;16.00;5.17;;;;;;;22.62;62.77;98797.45;2095052;85;21101;-64
2021/06/20 04:28:16;;;;;;;14.23;5.03;;;;;;;22.80;62.12;98794.05;2069642;85;21034;-64
2021/06/20 04:31:17;;;;;;;14.93;4.80;;;;;;;22.91;61.44;98794.16;2095144;85;21009;-64
2021/06/20 04:34:19;;;;;;;14.10;4.85;;;;;;;23.04;61.23;98791.44;2095083;85;21024;-64
2021/06/20 04:37:21;;;;;;;15.25;4.60;;;;;;;23.17;60.61;98793.06;2095153;85;21009;-64
2021/06/20 04:40:23;;;;;;;13.80;4.50;;;;;;;23.35;60.26;98788.80;2095206;85;21009;-63
2021/06/20 04:43:37;;;;;;;13.50;4.70;;;;;;;23.53;59.69;98788.50;2094857;84;21097;-64
2021/06/20 04:46:29;;;;;;;15.13;4.92;;;;;;;23.60;59.57;98790.79;2069799;85;21006;-64
2021/06/20 04:49:30;;;;;;;15.20;4.83;;;;;;;23.80;59.35;98783.11;2095059;85;21515;-64
2021/06/20 04:52:32;;;;;;;12.40;4.47;;;;;;;23.97;58.93;98774.98;2095403;85;21029;-63
2021/06/20 04:55:33;;;;;;;14.90;4.80;;;;;;;24.18;58.55;98776.45;2095092;85;21018;-63
2021/06/20 04:58:35;;;;;;;13.90;4.45;;;;;;;24.29;57.33;98783.71;2095162;85;21485;-64
2021/06/20 05:01:36;;;;;;;12.82;4.37;;;;;;;24.42;57.08;98780.39;2095281;84;21009;-64
2021/06/20 05:04:38;;;;;;;17.65;5.17;;;;;;;24.46;56.67;98776.34;2095157;85;21007;-64
2021/06/20 05:07:39;;;;;;;17.70;5.47;;;;;;;24.47;56.32;98776.16;2095117;85;20993;-63
2021/06/20 05:10:41;;;;;;;20.72;5.35;;;;;;;24.44;56.45;98772.50;2095017;84;21093;-64
2021/06/20 05:13:42;;;;;;;15.72;5.05;;;;;;;24.51;56.42;98778.79;2094991;85;21540;-66
2021/06/20 05:16:43;;;;;;;19.00;5.12;;;;;;;24.65;55.98;98780.34;2095095;85;20993;-64
2021/06/20 05:19:45;;;;;;;13.95;4.62;;;;;;;24.69;55.49;98778.95;2094998;85;21147;-63
2021/06/20 05:22:46;;;;;;;18.55;5.25;;;;;;;24.72;55.33;98771.88;2094931;85;21071;-64
2021/06/20 05:25:48;;;;;;;16.23;4.72;;;;;;;24.72;55.03;98767.36;2095029;85;21005;-64
2021/06/20 05:28:49;;;;;;;14.00;4.70;;;;;;;24.77;54.92;98767.28;2094767;85;21101;-64
2021/06/20 05:31:51;;;;;;;16.77;5.10;;;;;;;24.89;55.23;98756.41;2094961;85;21069;-64
2021/06/20 05:34:52;;;;;;;14.98;4.50;;;;;;;25.10;54.47;98753.44;2095026;85;21009;-64
2021/06/20 05:37:54;;;;;;;17.98;4.90;;;;;;;25.20;53.95;98756.67;2094961;85;21519;-64
2021/06/20 05:40:55;;;;;;;13.72;4.70;;;;;;;25.23;53.57;98753.09;2095015;85;21001;-64
2021/06/20 05:43:56;;;;;;;16.37;4.70;;;;;;;25.30;53.60;98768.42;2095885;85;21594;-64
2021/06/20 05:46:59;;;;;;;15.05;4.67;;;;;;;25.47;53.60;98769.87;2096624;85;21083;-64
2021/06/20 05:50:01;;;;;;;14.33;4.50;;;;;;;25.58;52.94;98768.02;2096293;85;21501;-64
2021/06/20 05:53:02;;;;;;;17.02;4.90;;;;;;;25.69;51.67;98759.15;2096554;85;21048;-64
2021/06/20 05:56:04;;;;;;;12.95;4.62;;;;;;;25.79;53.15;98753.42;2096455;85;21040;-64
2021/06/20 05:59:06;;;;;;;20.15;5.03;;;;;;;25.97;51.90;98758.34;2096052;85;21025;-64
2021/06/20 06:02:08;;;;;;;17.57;4.50;;;;;;;26.06;51.94;98755.84;2096404;85;21139;-64
2021/06/20 06:05:09;;;;;;;15.38;4.55;;;;;;;26.13;50.94;98763.97;2096718;85;21027;-64
2021/06/20 06:08:11;;;;;;;13.00;4.40;;;;;;;26.11;50.76;98771.70;2096498;85;21060;-64
2021/06/20 06:11:12;;;;;;;14.45;4.37;;;;;;;26.18;50.79;98762.88;2096476;85;21602;-64
2021/06/20 06:14:13;;;;;;;15.03;4.40;;;;;;;26.28;50.73;98769.55;2096615;85;21096;-64
2021/06/20 06:17:15;;;;;;;17.17;4.35;;;;;;;26.43;50.72;98772.14;2096224;85;21135;-64
2021/06/20 06:20:17;;;;;;;14.53;4.80;;;;;;;26.61;49.57;98786.92;2096501;85;21543;-64
2021/06/20 06:23:19;;;;;;;14.85;4.30;;;;;;;26.87;50.05;98792.16;2096134;85;21048;-64
2021/06/20 06:26:20;;;;;;;15.78;4.30;;;;;;;27.17;49.61;98797.22;2096473;85;21480;-65
2021/06/20 06:29:22;;;;;;;12.70;4.20;;;;;;;27.45;49.25;98802.52;2096230;85;21008;-65
2021/06/20 06:32:23;;;;;;;12.10;4.25;;;;;;;27.78;48.89;98799.88;2096506;85;21100;-65
2021/06/20 06:35:25;;;;;;;;;;;;;;;27.92;48.05;98804.77;2098843;85;21535;-67
2021/06/20 06:38:27;;;;;;;12.80;3.90;;;;;;;28.11;48.01;98796.39;2104799;85;20108;-66
2021/06/20 06:41:29;;;;;;;11.48;3.42;;;;;;;28.31;46.07;98785.59;2104683;85;21004;-65
2021/06/20 06:44:30;;;;;;;;;;;;;;;28.44;46.20;98792.83;2106947;84;21111;-65
2021/06/20 06:47:34;;;;;;;12.15;3.60;;;;;;;28.40;45.81;98788.07;2104750;85;20401;-64
2021/06/20 06:53:39;;;;;;;13.50;4.22;;;;;;;28.14;45.18;98793.80;2082930;85;21052;-64
2021/06/20 06:56:40;;;;;;;;;;;;;;;28.14;45.19;98791.95;2107292;85;21024;-65
2021/06/20 06:59:41;;;;;;;10.28;3.65;;;;;;;28.15;45.12;98800.86;2105020;85;20107;-67
2021/06/20 07:02:43;;;;;;;;;;;;;;;28.22;45.19;98804.38;2107292;85;21020;-66
2021/06/20 07:05:44;;;;;;;14.53;3.98;;;;;;;28.40;44.19;98805.08;2104990;85;20106;-66
2021/06/20 07:08:46;;;;;;;13.62;4.10;;;;;;;28.59;45.03;98805.25;2104924;85;21012;-64
2021/06/20 07:11:47;;;;;;;;;;;;;;;28.83;44.25;98786.22;2107207;85;21625;-65
2021/06/20 07:14:50;;;;;;;11.75;3.47;;;;;;;28.91;43.10;98783.83;2081991;85;20421;-65
2021/06/20 07:17:52;;;;;;;;;;;;;;;28.95;43.29;98773.73;2107259;85;21016;-65
2021/06/20 07:20:54;;;;;;;11.60;3.70;;;;;;;29.15;43.03;98780.89;2104594;85;20143;-65
2021/06/20 07:23:55;;;;;;;;;;;;;;;29.24;42.52;98776.94;2107182;85;20996;-64
2021/06/20 07:26:57;;;;;;;12.75;3.62;;;;;;;29.40;42.66;98776.95;2104767;85;20427;-64
2021/06/20 07:29:58;;;;;;;;;;;;;;;29.44;41.11;98771.42;2106957;85;21068;-64
2021/06/20 07:33:00;;;;;;;9.05;3.65;;;;;;;29.64;41.96;98781.25;2104760;85;20130;-65
2021/06/20 07:36:01;;;;;;;;;;;;;;;29.77;41.76;98777.62;2107342;85;21032;-67
2021/06/20 07:39:03;;;;;;;8.75;3.42;;;;;;;30.03;40.60;98783.39;2104641;85;20151;-65
2021/06/20 07:42:04;;;;;;;10.78;3.40;;;;;;;30.13;41.29;98778.81;2104709;85;21012;-64
2021/06/20 07:45:06;;;;;;;11.73;3.55;;;;;;;30.12;40.20;98779.34;2096576;84;21028;-65
2021/06/20 07:48:08;;;;;;;10.03;3.77;;;;;;;30.12;40.08;98778.53;2043814;87;21530;-65
2021/06/20 07:51:09;;;;;;;10.55;3.75;;;;;;;30.26;39.94;98778.70;2093101;85;21031;-64
2021/06/20 07:54:14;;;;;;;10.53;3.70;;;;;;;30.27;38.82;98776.81;2043831;87;21059;-65
2021/06/20 07:57:15;;;;;;;12.23;3.90;;;;;;;30.29;39.09;98772.03;2066731;85;21001;-65
2021/06/20 08:00:16;;;;;;;10.93;3.77;;;;;;;30.28;39.63;98755.48;2043966;87;21072;-65
2021/06/20 08:03:18;;;;;;;8.75;3.70;;;;;;;30.49;40.13;98752.38;2093222;85;21468;-65
2021/06/20 08:06:20;;;;;;;11.55;3.60;;;;;;;30.78;38.79;98764.03;2043831;87;21146;-65
2021/06/20 08:09:22;;;;;;;11.45;3.90;;;;;;;30.65;37.70;98759.06;2093288;85;21008;-64
2021/06/20 08:12:23;;;;;;;9.53;3.90;;;;;;;30.52;38.55;98768.16;2043914;87;21011;-65
2021/06/20 08:15:25;;;;;;;10.98;3.90;;;;;;;30.58;38.81;98765.08;2093209;85;20992;-64
2021/06/20 08:18:27;;;;;;;10.48;4.08;;;;;;;30.66;39.21;98762.08;2043817;87;21022;-65
2021/06/20 08:21:28;;;;;;;10.58;3.75;;;;;;;30.75;38.69;98762.06;2093068;85;21472;-64
2021/06/20 08:24:30;;;;;;;11.57;3.83;;;;;;;30.93;38.46;98749.05;2043779;87;21601;-64
2021/06/20 08:27:31;;;;;;;15.03;3.72;;;;;;;31.21;39.33;98749.55;2093092;85;21562;-66
2021/06/20 08:30:33;;;;;;;10.13;3.60;;;;;;;31.27;37.16;98754.03;2043630;87;21100;-65
2021/06/20 08:33:34;;;;;;;11.95;3.70;;;;;;;31.29;37.96;98757.33;2092973;85;21016;-65
2021/06/20 08:36:35;;;;;;;10.08;3.65;;;;;;;31.42;37.40;98762.58;2043771;87;21510;-65
2021/06/20 08:39:37;;;;;;;8.95;3.20;;;;;;;31.53;36.67;98766.36;2093288;85;20969;-65
2021/06/20 08:42:38;;;;;;;10.82;3.92;;;;;;;31.55;36.65;98773.74;2043798;87;21024;-65
2021/06/20 08:45:40;;;;;;;12.47;4.00;;;;;;;31.70;36.54;98771.16;2104362;84;21086;-64
2021/06/20 08:48:42;;;;;;;12.37;4.17;;;;;;;31.86;36.49;98765.03;2070630;86;21490;-66
2021/06/20 08:51:43;;;;;;;11.20;3.72;;;;;;;32.01;36.90;98760.53;2096448;85;21084;-77
2021/06/20 08:57:48;;;;;;;10.95;3.50;;;;;;;32.34;35.51;98748.80;2077219;85;20988;-67
2021/06/20 09:00:50;;;;;;;9.98;3.55;;;;;;;32.24;35.16;98752.10;2096604;85;21091;-65
2021/06/20 09:03:52;;;;;;;10.80;3.80;;;;;;;32.29;35.63;98748.97;2096518;85;21108;-66
2021/06/20 09:06:53;;;;;;;11.60;3.60;;;;;;;32.45;35.78;98741.99;2096549;85;21512;-65
2021/06/20 09:09:55;;;;;;;14.18;3.58;;;;;;;32.61;35.85;98750.47;2096700;85;21047;-65
2021/06/20 09:12:56;;;;;;;12.33;3.85;;;;;;;32.69;34.80;98741.98;2096527;85;21084;-65
2021/06/20 09:15:57;;;;;;;10.25;3.72;;;;;;;32.71;34.55;98745.27;2096548;85;21570;-65
2021/06/20 09:18:59;;;;;;;13.85;4.00;;;;;;;32.69;34.75;98750.13;2096704;85;21068;-66
2021/06/20 09:22:02;;;;;;;10.90;3.80;;;;;;;32.46;34.91;98746.37;2096554;85;21088;-65
2021/06/20 09:25:03;;;;;;;12.47;3.65;;;;;;;32.45;34.82;98754.20;2096525;85;21060;-69
2021/06/20 09:28:05;;;;;;;8.98;3.77;;;;;;;32.65;34.98;98757.88;2096360;85;21128;-66
2021/06/20 09:31:09;;;;;;;15.05;4.37;;;;;;;32.80;33.99;98752.51;2075529;85;21016;-65
2021/06/20 09:34:10;;;;;;;11.05;3.83;;;;;;;32.86;34.09;98740.70;2096451;85;20988;-65
2021/06/20 09:37:12;;;;;;;10.70;4.08;;;;;;;33.06;34.60;98742.99;2096409;85;21003;-66
2021/06/20 09:40:15;;;;;;;12.13;4.12;;;;;;;33.22;33.67;98738.70;2096495;85;21044;-65
2021/06/20 09:43:17;;;;;;;10.48;3.55;;;;;;;33.09;33.13;98734.89;2096316;85;20965;-65
2021/06/20 09:46:18;;;;;;;9.18;3.58;;;;;;;32.99;33.07;98729.55;2096414;85;21543;-65
2021/06/20 09:49:19;;;;;;;10.05;3.50;;;;;;;33.04;33.51;98713.05;2096431;85;21060;-65
2021/06/20 09:52:22;;;;;;;13.10;3.98;;;;;;;33.32;33.79;98714.42;2096374;85;21104;-67
2021/06/20 09:55:23;;;;;;;9.18;3.70;;;;;;;33.40;32.30;98709.10;2096352;85;21064;-65
2021/06/20 09:58:25;;;;;;;10.00;3.33;;;;;;;33.54;33.00;98700.65;2096123;85;21024;-66
2021/06/20 10:01:28;;;;;;;9.85;3.37;;;;;;;33.65;32.15;98699.20;2096412;85;21044;-66
2021/06/20 10:04:29;;;;;;;13.18;3.80;;;;;;;33.74;33.10;98698.79;2096401;85;21091;-65
2021/06/20 10:07:31;;;;;;;12.07;3.90;;;;;;;33.74;31.53;98701.52;2096351;85;21546;-65
2021/06/20 10:10:33;;;;;;;9.10;3.50;;;;;;;33.68;32.85;98701.96;2096073;85;21614;-66
2021/06/20 10:13:34;;;;;;;9.50;3.33;;;;;;;33.76;31.65;98693.43;2096420;85;21056;-67
2021/06/20 10:16:37;;;;;;;11.25;3.80;;;;;;;33.85;32.16;98693.83;2096398;85;21099;-66
2021/06/20 10:19:41;;;;;;;11.12;3.62;;;;;;;33.77;32.38;98682.00;2096390;85;21128;-65
2021/06/20 10:22:42;;;;;;;10.50;3.60;;;;;;;33.65;32.06;98674.73;2077233;85;20984;-66
2021/06/20 10:25:44;;;;;;;11.68;3.42;;;;;;;33.54;32.57;98678.91;2096513;85;21079;-66
2021/06/20 10:28:51;;;;;;;12.88;3.90;;;;;;;33.60;32.23;98671.92;2096616;85;21615;-65
2021/06/20 10:31:48;;;;;;;10.55;3.95;;;;;;;33.70;31.89;98667.17;2076959;85;20996;-65
2021/06/20 10:34:50;;;;;;;11.50;3.40;;;;;;;33.81;33.10;98668.20;2096455;85;21547;-65
2021/06/20 10:37:52;;;;;;;10.32;3.65;;;;;;;34.07;32.36;98656.33;2096488;85;21064;-66
2021/06/20 10:40:53;;;;;;;10.45;3.52;;;;;;;34.21;31.21;98655.39;2096457;85;21080;-65
2021/06/20 10:43:55;;;;;;;11.48;3.30;;;;;;;34.15;30.56;98652.63;2096406;85;21155;-66
2021/06/20 10:46:57;;;;;;;10.90;3.75;;;;;;;34.04;31.15;98650.84;2096580;85;21033;-65
2021/06/20 10:50:00;;;;;;;10.25;3.58;;;;;;;34.04;30.31;98647.31;2096308;85;21167;-66
2021/06/20 10:53:01;;;;;;;10.65;3.60;;;;;;;33.92;30.28;98647.39;2096317;85;21080;-66
2021/06/20 10:56:03;;;;;;;11.83;3.72;;;;;;;34.05;31.00;98647.05;2096358;85;21052;-69
2021/06/20 10:59:04;;;;;;;9.68;3.35;;;;;;;34.31;29.81;98650.95;2096340;85;21036;-65
2021/06/20 11:02:07;;;;;;;7.05;3.10;;;;;;;34.32;29.34;98658.56;2096352;85;21048;-69
2021/06/20 11:05:09;;;;;;;18.07;3.35;;;;;;;34.16;28.89;98650.17;2096288;85;21632;-67
2021/06/20 11:08:11;;;;;;;8.68;3.20;;;;;;;34.18;29.30;98652.66;2096604;85;21075;-66
2021/06/20 11:11:14;;;;;;;10.75;2.95;;;;;;;34.22;29.66;98648.34;2096281;85;21155;-65
2021/06/20 11:14:15;;;;;;;12.03;3.40;;;;;;;34.45;29.65;98655.48;2096467;85;21061;-66
2021/06/20 11:17:17;;;;;;;10.08;3.25;;;;;;;34.62;29.12;98666.81;2096272;85;21112;-78
2021/06/20 11:20:19;;;;;;;7.53;2.85;;;;;;;34.70;29.86;98665.02;2096479;85;21124;-66
2021/06/20 11:23:21;;;;;;;9.08;2.90;;;;;;;34.80;29.17;98652.08;2096508;85;21049;-66
2021/06/20 11:26:22;;;;;;;8.05;2.67;;;;;;;34.66;29.41;98652.98;2096484;85;21074;-66
2021/06/20 11:29:24;;;;;;;6.37;2.33;;;;;;;34.69;27.98;98647.83;2096520;85;21073;-68
2021/06/20 11:32:25;;;;;;;8.68;2.67;;;;;;;34.61;28.12;98645.59;2096514;85;21085;-66
2021/06/20 11:35:26;;;;;;;7.17;2.60;;;;;;;34.49;28.82;98653.06;2096609;85;21065;-68
2021/06/20 11:38:28;;;;;;;7.53;2.60;;;;;;;34.46;28.04;98645.41;2096524;85;21060;-66
2021/06/20 11:41:29;;;;;;;7.67;2.67;;;;;;;34.60;28.61;98641.21;2096546;85;21064;-70
2021/06/20 11:44:31;;;;;;;5.92;2.50;;;;;;;34.83;27.96;98644.20;2095968;85;21121;-66
2021/06/20 11:47:32;;;;;;;7.33;2.55;;;;;;;35.07;28.80;98643.05;2094975;85;20974;-66
2021/06/20 11:50:34;;;;;;;7.00;2.98;;;;;;;35.26;29.39;98644.33;2094967;84;21513;-66
2021/06/20 11:53:35;;;;;;;8.23;2.50;;;;;;;35.35;27.24;98633.80;2094975;84;21041;-65
2021/06/20 11:56:38;;;;;;;7.78;2.72;;;;;;;35.24;27.28;98632.84;2094949;85;21005;-66
2021/06/20 11:59:40;;;;;;;5.78;2.40;;;;;;;35.42;28.51;98633.03;2094939;84;21591;-65
2021/06/20 12:02:42;;;;;;;7.40;2.85;;;;;;;35.50;26.65;98627.10;2094963;85;20993;-66
2021/06/20 12:05:43;;;;;;;8.13;2.70;;;;;;;35.45;26.75;98633.87;2094973;85;21559;-65
2021/06/20 12:08:45;;;;;;;7.15;2.37;;;;;;;35.45;27.24;98624.88;2095190;85;21382;-66
2021/06/20 12:11:46;;;;;;;6.03;2.20;;;;;;;35.67;27.23;98628.28;2094844;85;21103;-64
2021/06/20 12:14:48;;;;;;;4.08;2.20;;;;;;;35.77;27.02;98619.34;2094931;84;21485;-66
2021/06/20 12:17:50;;;;;;;6.30;2.00;;;;;;;35.87;25.91;98618.62;2095103;85;20974;-67
2021/06/20 12:20:51;;;;;;;6.92;2.90;;;;;;;35.80;26.27;98622.94;2094961;85;21468;-67
2021/06/20 12:23:53;;;;;;;10.75;2.50;;;;;;;35.82;26.56;98606.33;2095072;85;21018;-67
2021/06/20 12:26:54;;;;;;;7.65;2.40;;;;;;;35.99;26.52;98606.95;2094917;85;20997;-67
2021/06/20 12:29:55;;;;;;;10.23;2.70;;;;;;;36.07;25.91;98599.60;2095003;84;21005;-67
2021/06/20 12:32:57;;;;;;;8.85;2.70;;;;;;;36.08;26.18;98593.63;2094936;85;21036;-67
2021/06/20 12:35:59;;;;;;;9.00;2.50;;;;;;;36.14;26.25;98584.91;2094621;85;21549;-67
2021/06/20 12:39:01;;;;;;;8.55;2.22;;;;;;;36.25;26.13;98590.69;2095082;85;20974;-66
2021/06/20 12:42:03;;;;;;;4.62;2.40;;;;;;;36.21;25.59;98590.39;2094629;85;21651;-66
2021/06/20 12:45:05;;;;;;;6.95;2.50;;;;;;;36.12;25.73;98592.53;2094802;85;21093;-68
2021/06/20 12:48:06;;;;;;;5.58;2.50;;;;;;;36.15;26.16;98588.73;2094916;85;21081;-65
2021/06/20 12:51:09;;;;;;;6.55;2.50;;;;;;;36.32;26.18;98581.73;2094922;85;21021;-65
2021/06/20 12:54:10;;;;;;;8.00;2.80;;;;;;;36.45;25.81;98591.85;2094940;85;21051;-65
2021/06/20 12:57:12;;;;;;;8.28;2.45;;;;;;;36.57;25.78;98589.70;2094911;85;21496;-65
2021/06/20 13:00:13;;;;;;;10.75;2.75;;;;;;;36.61;26.03;98591.34;2094935;85;21061;-65
2021/06/20 13:03:15;;;;;;;8.10;2.85;;;;;;;36.69;25.50;98594.91;2094928;84;21572;-65
2021/06/20 13:06:17;;;;;;;9.23;2.85;;;;;;;36.58;25.52;98593.53;2094841;85;21030;-65
2021/06/20 13:09:18;;;;;;;5.95;2.50;;;;;;;36.47;25.86;98595.15;2094606;84;21596;-65
2021/06/20 13:12:20;;;;;;;7.65;2.70;;;;;;;36.34;26.27;98581.46;2094823;85;21090;-65
2021/06/20 13:15:22;;;;;;;8.58;2.77;;;;;;;36.36;25.69;98591.03;2094542;85;21081;-65
2021/06/20 13:18:23;;;;;;;7.85;2.40;;;;;;;36.44;25.96;98585.58;2094891;84;21564;-65
2021/06/20 13:21:25;;;;;;;4.97;2.50;;;;;;;36.54;25.19;98587.52;2094906;85;21077;-64
2021/06/20 13:24:28;;;;;;;5.35;2.10;;;;;;;36.64;25.40;98588.09;2068230;85;21034;-68
2021/06/20 13:27:29;;;;;;;7.58;2.47;;;;;;;36.73;25.63;98592.72;2095075;84;21524;-64
2021/06/20 13:30:31;;;;;;;5.70;2.60;;;;;;;36.72;24.94;98591.63;2095184;85;21041;-65
2021/06/20 13:33:32;;;;;;;7.87;2.30;;;;;;;36.68;25.07;98591.89;2095080;84;20994;-64
2021/06/20 13:36:34;;;;;;;7.72;2.37;;;;;;;36.82;24.64;98592.23;2094615;85;21030;-65
2021/06/20 13:39:36;;;;;;;8.38;2.12;;;;;;;36.91;25.01;98595.52;2095068;84;21045;-65
2021/06/20 13:42:37;;;;;;;3.27;1.95;;;;;;;36.90;25.09;98599.89;2094954;85;21025;-65
2021/06/20 13:45:39;;;;;;;8.03;2.40;;;;;;;36.84;24.34;98597.70;2094796;84;21505;-65
2021/06/20 13:48:40;;;;;;;5.30;2.30;;;;;;;36.76;24.88;98595.46;2094921;85;21021;-65
2021/06/20 13:51:41;;;;;;;4.45;2.22;;;;;;;36.88;25.02;98589.23;2094892;85;21063;-65
2021/06/20 13:54:43;;;;;;;6.20;2.35;;;;;;;36.79;24.90;98583.21;2094949;85;21507;-65
2021/06/20 13:57:44;;;;;;;6.65;2.30;;;;;;;36.69;24.59;98576.59;2095658;85;21037;-64
2021/06/20 14:00:46;;;;;;;3.98;1.90;;;;;;;36.65;25.57;98582.35;2094973;84;21508;-68
2021/06/20 14:03:47;;;;;;;6.72;2.35;;;;;;;36.79;25.48;98578.56;2094629;84;21045;-64
2021/06/20 14:06:49;;;;;;;5.40;2.45;;;;;;;36.81;24.47;98581.86;2094917;85;20998;-64
2021/06/20 14:09:50;;;;;;;2.95;1.90;;;;;;;36.74;24.81;98573.08;2095114;84;21129;-64
2021/06/20 14:12:52;;;;;;;5.53;2.40;;;;;;;36.86;24.59;98568.18;2094954;85;20990;-64